sensor_id;sensor_type;location;lat;lon;timestamp;temperature;humidity
63051;SHT30;49136;47.416;19.402;2023-02-28T00:00:24;-1.64;80.47
63051;SHT30;49136;47.416;19.402;2023-02-28T00:02:50;-1.63;80.41
63051;SHT30;49136;47.416;19.402;2023-02-28T00:05:18;-1.68;80.76
63051;SHT30;49136;47.416;19.402;2023-02-28T00:07:45;-1.66;80.82
63051;SHT30;49136;47.416;19.402;2023-02-28T00:10:13;-1.66;81.56
63051;SHT30;49136;47.416;19.402;2023-02-28T00:12:38;-1.68;81.87
63051;SHT30;49136;47.416;19.402;2023-02-28T00:15:11;-1.70;82.53
63051;SHT30;49136;47.416;19.402;2023-02-28T00:17:37;-1.71;82.84
63051;SHT30;49136;47.416;19.402;2023-02-28T00:20:04;-1.67;82.79
63051;SHT30;49136;47.416;19.402;2023-02-28T00:22:30;-1.66;82.52
63051;SHT30;49136;47.416;19.402;2023-02-28T00:24:55;-1.60;81.23
63051;SHT30;49136;47.416;19.402;2023-02-28T00:27:20;-1.57;81.24
63051;SHT30;49136;47.416;19.402;2023-02-28T00:29:46;-1.57;81.05
63051;SHT30;49136;47.416;19.402;2023-02-28T00:32:12;-1.56;81.21
63051;SHT30;49136;47.416;19.402;2023-02-28T00:34:37;-1.52;81.15
63051;SHT30;49136;47.416;19.402;2023-02-28T00:37:07;-1.50;81.05
63051;SHT30;49136;47.416;19.402;2023-02-28T00:39:34;-1.49;81.13
63051;SHT30;49136;47.416;19.402;2023-02-28T00:42:00;-1.43;81.18
63051;SHT30;49136;47.416;19.402;2023-02-28T00:44:27;-1.39;80.12
63051;SHT30;49136;47.416;19.402;2023-02-28T00:46:53;-1.34;79.56
63051;SHT30;49136;47.416;19.402;2023-02-28T00:49:19;-1.34;79.88
63051;SHT30;49136;47.416;19.402;2023-02-28T00:51:46;-1.35;80.23
63051;SHT30;49136;47.416;19.402;2023-02-28T00:54:11;-1.31;79.93
63051;SHT30;49136;47.416;19.402;2023-02-28T00:56:36;-1.29;79.87
63051;SHT30;49136;47.416;19.402;2023-02-28T00:59:02;-1.31;79.96
63051;SHT30;49136;47.416;19.402;2023-02-28T01:01:27;-1.31;80.20
63051;SHT30;49136;47.416;19.402;2023-02-28T01:03:53;-1.28;80.33
63051;SHT30;49136;47.416;19.402;2023-02-28T01:06:18;-1.24;80.26
63051;SHT30;49136;47.416;19.402;2023-02-28T01:08:44;-1.24;80.54
63051;SHT30;49136;47.416;19.402;2023-02-28T01:11:11;-1.19;80.03
63051;SHT30;49136;47.416;19.402;2023-02-28T01:13:37;-1.16;79.73
63051;SHT30;49136;47.416;19.402;2023-02-28T01:16:02;-1.18;80.03
63051;SHT30;49136;47.416;19.402;2023-02-28T01:18:28;-1.14;79.46
63051;SHT30;49136;47.416;19.402;2023-02-28T01:20:54;-1.11;79.04
63051;SHT30;49136;47.416;19.402;2023-02-28T01:23:20;-1.11;78.98
63051;SHT30;49136;47.416;19.402;2023-02-28T01:25:46;-1.12;79.25
63051;SHT30;49136;47.416;19.402;2023-02-28T01:28:12;-1.14;79.65
63051;SHT30;49136;47.416;19.402;2023-02-28T01:30:37;-1.12;80.04
63051;SHT30;49136;47.416;19.402;2023-02-28T01:33:03;-1.12;79.80
63051;SHT30;49136;47.416;19.402;2023-02-28T01:35:28;-1.11;80.28
63051;SHT30;49136;47.416;19.402;2023-02-28T01:37:54;-1.09;80.61
63051;SHT30;49136;47.416;19.402;2023-02-28T01:40:19;-1.14;80.72
63051;SHT30;49136;47.416;19.402;2023-02-28T01:42:45;-1.12;81.06
63051;SHT30;49136;47.416;19.402;2023-02-28T01:45:26;-1.08;80.42
63051;SHT30;49136;47.416;19.402;2023-02-28T01:47:55;-1.05;80.58
63051;SHT30;49136;47.416;19.402;2023-02-28T01:50:26;-1.04;80.46
63051;SHT30;49136;47.416;19.402;2023-02-28T01:52:55;-1.04;80.59
63051;SHT30;49136;47.416;19.402;2023-02-28T01:55:22;-1.03;80.38
63051;SHT30;49136;47.416;19.402;2023-02-28T01:57:51;-1.04;80.42
63051;SHT30;49136;47.416;19.402;2023-02-28T02:00:21;-0.97;80.08
63051;SHT30;49136;47.416;19.402;2023-02-28T02:02:51;-0.90;80.18
63051;SHT30;49136;47.416;19.402;2023-02-28T02:05:19;-0.84;80.19
63051;SHT30;49136;47.416;19.402;2023-02-28T02:07:47;-0.86;80.29
63051;SHT30;49136;47.416;19.402;2023-02-28T02:10:20;-0.90;80.14
63051;SHT30;49136;47.416;19.402;2023-02-28T02:13:08;-0.91;80.21
63051;SHT30;49136;47.416;19.402;2023-02-28T02:24:38;-0.93;80.02
63051;SHT30;49136;47.416;19.402;2023-02-28T02:33:05;-0.87;79.03
63051;SHT30;49136;47.416;19.402;2023-02-28T02:35:43;-0.91;79.64
63051;SHT30;49136;47.416;19.402;2023-02-28T02:38:18;-0.91;79.40
63051;SHT30;49136;47.416;19.402;2023-02-28T02:40:58;-0.87;79.18
63051;SHT30;49136;47.416;19.402;2023-02-28T02:43:36;-0.90;78.87
63051;SHT30;49136;47.416;19.402;2023-02-28T02:46:08;-0.90;79.33
63051;SHT30;49136;47.416;19.402;2023-02-28T02:48:36;-0.90;79.20
63051;SHT30;49136;47.416;19.402;2023-02-28T02:51:07;-0.93;79.33
63051;SHT30;49136;47.416;19.402;2023-02-28T02:53:46;-0.90;79.52
63051;SHT30;49136;47.416;19.402;2023-02-28T02:56:17;-0.83;78.77
63051;SHT30;49136;47.416;19.402;2023-02-28T02:58:44;-0.84;79.16
63051;SHT30;49136;47.416;19.402;2023-02-28T03:01:16;-0.83;79.09
63051;SHT30;49136;47.416;19.402;2023-02-28T03:03:59;-0.86;79.29
63051;SHT30;49136;47.416;19.402;2023-02-28T03:06:26;-0.83;78.85
63051;SHT30;49136;47.416;19.402;2023-02-28T03:08:51;-0.86;79.44
63051;SHT30;49136;47.416;19.402;2023-02-28T03:11:17;-0.88;79.75
63051;SHT30;49136;47.416;19.402;2023-02-28T03:16:38;-0.83;79.48
63051;SHT30;49136;47.416;19.402;2023-02-28T03:22:09;-0.81;79.34
63051;SHT30;49136;47.416;19.402;2023-02-28T03:27:46;-0.83;79.60
63051;SHT30;49136;47.416;19.402;2023-02-28T03:30:25;-0.80;79.16
63051;SHT30;49136;47.416;19.402;2023-02-28T03:35:39;-0.73;79.39
63051;SHT30;49136;47.416;19.402;2023-02-28T03:38:14;-0.62;78.31
63051;SHT30;49136;47.416;19.402;2023-02-28T03:40:48;-0.74;78.70
63051;SHT30;49136;47.416;19.402;2023-02-28T03:43:22;-0.63;78.53
63051;SHT30;49136;47.416;19.402;2023-02-28T03:45:50;-0.72;78.89
63051;SHT30;49136;47.416;19.402;2023-02-28T03:48:49;-0.74;79.09
63051;SHT30;49136;47.416;19.402;2023-02-28T03:51:17;-0.74;79.09
63051;SHT30;49136;47.416;19.402;2023-02-28T03:53:53;-0.74;79.36
63051;SHT30;49136;47.416;19.402;2023-02-28T03:56:37;-0.77;79.74
63051;SHT30;49136;47.416;19.402;2023-02-28T04:01:48;-0.76;79.74
63051;SHT30;49136;47.416;19.402;2023-02-28T04:04:15;-0.76;80.01
63051;SHT30;49136;47.416;19.402;2023-02-28T04:06:42;-0.80;79.79
63051;SHT30;49136;47.416;19.402;2023-02-28T04:09:11;-0.76;80.26
63051;SHT30;49136;47.416;19.402;2023-02-28T04:11:50;-0.80;80.53
63051;SHT30;49136;47.416;19.402;2023-02-28T04:14:19;-0.79;80.44
63051;SHT30;49136;47.416;19.402;2023-02-28T04:16:44;-0.79;80.78
63051;SHT30;49136;47.416;19.402;2023-02-28T04:19:11;-0.80;80.45
63051;SHT30;49136;47.416;19.402;2023-02-28T04:21:40;-0.80;80.14
63051;SHT30;49136;47.416;19.402;2023-02-28T04:24:07;-0.76;80.67
63051;SHT30;49136;47.416;19.402;2023-02-28T04:26:35;-0.74;80.51
63051;SHT30;49136;47.416;19.402;2023-02-28T04:29:03;-0.74;80.21
63051;SHT30;49136;47.416;19.402;2023-02-28T04:31:29;-0.74;80.69
63051;SHT30;49136;47.416;19.402;2023-02-28T04:33:54;-0.76;80.56
63051;SHT30;49136;47.416;19.402;2023-02-28T04:36:20;-0.74;80.30
63051;SHT30;49136;47.416;19.402;2023-02-28T04:38:45;-0.76;80.66
63051;SHT30;49136;47.416;19.402;2023-02-28T04:41:12;-0.76;80.94
63051;SHT30;49136;47.416;19.402;2023-02-28T04:43:38;-0.73;80.92
63051;SHT30;49136;47.416;19.402;2023-02-28T04:46:05;-0.73;80.07
63051;SHT30;49136;47.416;19.402;2023-02-28T04:48:33;-0.69;80.30
63051;SHT30;49136;47.416;19.402;2023-02-28T04:51:09;-0.69;80.99
63051;SHT30;49136;47.416;19.402;2023-02-28T04:53:39;-0.70;81.05
63051;SHT30;49136;47.416;19.402;2023-02-28T04:56:05;-0.69;80.96
63051;SHT30;49136;47.416;19.402;2023-02-28T04:58:32;-0.63;81.76
63051;SHT30;49136;47.416;19.402;2023-02-28T05:01:05;-0.65;81.60
63051;SHT30;49136;47.416;19.402;2023-02-28T05:03:39;-0.62;79.97
63051;SHT30;49136;47.416;19.402;2023-02-28T05:06:09;-0.59;80.06
63051;SHT30;49136;47.416;19.402;2023-02-28T05:08:35;-0.55;79.09
63051;SHT30;49136;47.416;19.402;2023-02-28T05:11:00;-0.56;79.19
63051;SHT30;49136;47.416;19.402;2023-02-28T05:13:27;-0.56;79.64
63051;SHT30;49136;47.416;19.402;2023-02-28T05:15:52;-0.56;79.51
63051;SHT30;49136;47.416;19.402;2023-02-28T05:18:18;-0.55;79.99
63051;SHT30;49136;47.416;19.402;2023-02-28T05:20:43;-0.52;79.81
63051;SHT30;49136;47.416;19.402;2023-02-28T05:23:12;-0.52;79.75
63051;SHT30;49136;47.416;19.402;2023-02-28T05:25:38;-0.49;79.40
63051;SHT30;49136;47.416;19.402;2023-02-28T05:28:03;-0.48;79.49
63051;SHT30;49136;47.416;19.402;2023-02-28T05:30:29;-0.45;78.47
63051;SHT30;49136;47.416;19.402;2023-02-28T05:32:55;-0.42;77.67
63051;SHT30;49136;47.416;19.402;2023-02-28T05:35:20;-0.39;77.60
63051;SHT30;49136;47.416;19.402;2023-02-28T05:37:46;-0.36;77.47
63051;SHT30;49136;47.416;19.402;2023-02-28T05:40:14;-0.36;77.04
63051;SHT30;49136;47.416;19.402;2023-02-28T05:42:40;-0.36;77.11
63051;SHT30;49136;47.416;19.402;2023-02-28T05:45:07;-0.34;76.52
63051;SHT30;49136;47.416;19.402;2023-02-28T05:47:33;-0.34;76.08
63051;SHT30;49136;47.416;19.402;2023-02-28T05:49:59;-0.28;76.69
63051;SHT30;49136;47.416;19.402;2023-02-28T05:52:25;-0.28;76.32
63051;SHT30;49136;47.416;19.402;2023-02-28T05:54:50;-0.22;76.15
63051;SHT30;49136;47.416;19.402;2023-02-28T05:57:16;-0.21;76.08
63051;SHT30;49136;47.416;19.402;2023-02-28T05:59:41;-0.18;76.59
63051;SHT30;49136;47.416;19.402;2023-02-28T06:02:17;-0.17;76.50
63051;SHT30;49136;47.416;19.402;2023-02-28T06:04:43;-0.13;76.88
63051;SHT30;49136;47.416;19.402;2023-02-28T06:07:09;-0.06;77.15
63051;SHT30;49136;47.416;19.402;2023-02-28T06:09:36;-0.03;76.65
63051;SHT30;49136;47.416;19.402;2023-02-28T06:12:03;0.03;75.94
63051;SHT30;49136;47.416;19.402;2023-02-28T06:14:31;0.07;76.12
63051;SHT30;49136;47.416;19.402;2023-02-28T06:16:58;0.13;75.92
63051;SHT30;49136;47.416;19.402;2023-02-28T06:19:24;0.19;76.40
63051;SHT30;49136;47.416;19.402;2023-02-28T06:21:51;0.19;75.60
63051;SHT30;49136;47.416;19.402;2023-02-28T06:24:19;0.28;75.14
63051;SHT30;49136;47.416;19.402;2023-02-28T06:26:48;0.37;75.55
63051;SHT30;49136;47.416;19.402;2023-02-28T06:29:14;0.38;74.50
63051;SHT30;49136;47.416;19.402;2023-02-28T06:31:44;0.49;74.41
63051;SHT30;49136;47.416;19.402;2023-02-28T06:34:10;0.49;73.80
63051;SHT30;49136;47.416;19.402;2023-02-28T06:36:40;0.62;74.15
63051;SHT30;49136;47.416;19.402;2023-02-28T06:39:06;0.66;74.09
63051;SHT30;49136;47.416;19.402;2023-02-28T06:41:32;0.70;73.17
63051;SHT30;49136;47.416;19.402;2023-02-28T06:44:14;0.80;73.41
63051;SHT30;49136;47.416;19.402;2023-02-28T06:46:41;0.81;73.40
63051;SHT30;49136;47.416;19.402;2023-02-28T06:49:08;0.90;73.47
63051;SHT30;49136;47.416;19.402;2023-02-28T06:51:38;0.94;73.30
63051;SHT30;49136;47.416;19.402;2023-02-28T06:54:05;0.91;73.03
63051;SHT30;49136;47.416;19.402;2023-02-28T06:56:30;0.95;73.01
63051;SHT30;49136;47.416;19.402;2023-02-28T06:58:56;0.98;72.95
63051;SHT30;49136;47.416;19.402;2023-02-28T07:01:22;1.05;72.55
63051;SHT30;49136;47.416;19.402;2023-02-28T07:03:49;1.24;72.71
63051;SHT30;49136;47.416;19.402;2023-02-28T07:06:21;1.29;73.25
63051;SHT30;49136;47.416;19.402;2023-02-28T07:08:48;1.39;72.59
63051;SHT30;49136;47.416;19.402;2023-02-28T07:11:13;1.22;71.51
63051;SHT30;49136;47.416;19.402;2023-02-28T07:13:39;1.42;72.23
63051;SHT30;49136;47.416;19.402;2023-02-28T07:16:06;1.60;72.45
63051;SHT30;49136;47.416;19.402;2023-02-28T07:18:34;1.54;71.46
63051;SHT30;49136;47.416;19.402;2023-02-28T07:21:05;1.57;71.19
63051;SHT30;49136;47.416;19.402;2023-02-28T07:23:31;1.73;71.52
63051;SHT30;49136;47.416;19.402;2023-02-28T07:25:57;1.84;70.45
63051;SHT30;49136;47.416;19.402;2023-02-28T07:28:23;1.91;71.10
63051;SHT30;49136;47.416;19.402;2023-02-28T07:30:48;1.91;70.56
63051;SHT30;49136;47.416;19.402;2023-02-28T07:33:14;1.82;70.30
63051;SHT30;49136;47.416;19.402;2023-02-28T07:35:39;1.84;69.70
63051;SHT30;49136;47.416;19.402;2023-02-28T07:38:05;2.01;69.68
63051;SHT30;49136;47.416;19.402;2023-02-28T07:40:32;1.97;69.07
63051;SHT30;49136;47.416;19.402;2023-02-28T07:42:59;1.98;69.29
63051;SHT30;49136;47.416;19.402;2023-02-28T07:45:26;1.98;70.06
63051;SHT30;49136;47.416;19.402;2023-02-28T07:47:51;2.11;69.20
63051;SHT30;49136;47.416;19.402;2023-02-28T07:50:17;2.02;68.20
63051;SHT30;49136;47.416;19.402;2023-02-28T07:52:42;2.06;67.87
63051;SHT30;49136;47.416;19.402;2023-02-28T07:55:09;2.01;67.96
63051;SHT30;49136;47.416;19.402;2023-02-28T07:57:35;2.09;68.33
63051;SHT30;49136;47.416;19.402;2023-02-28T08:00:00;2.43;67.91
63051;SHT30;49136;47.416;19.402;2023-02-28T08:02:26;2.47;67.50
63051;SHT30;49136;47.416;19.402;2023-02-28T08:04:52;2.66;67.37
63051;SHT30;49136;47.416;19.402;2023-02-28T08:07:17;2.41;67.69
63051;SHT30;49136;47.416;19.402;2023-02-28T08:09:44;2.54;67.60
63051;SHT30;49136;47.416;19.402;2023-02-28T08:12:10;2.39;68.10
63051;SHT30;49136;47.416;19.402;2023-02-28T08:14:36;2.55;67.78
63051;SHT30;49136;47.416;19.402;2023-02-28T08:17:02;2.78;67.81
63051;SHT30;49136;47.416;19.402;2023-02-28T08:19:28;2.66;68.04
63051;SHT30;49136;47.416;19.402;2023-02-28T08:21:54;2.68;67.88
63051;SHT30;49136;47.416;19.402;2023-02-28T08:24:20;2.57;68.46
63051;SHT30;49136;47.416;19.402;2023-02-28T08:26:45;2.96;68.37
63051;SHT30;49136;47.416;19.402;2023-02-28T08:29:11;2.79;67.58
63051;SHT30;49136;47.416;19.402;2023-02-28T08:31:36;2.93;68.02
63051;SHT30;49136;47.416;19.402;2023-02-28T08:34:09;3.27;68.25
63051;SHT30;49136;47.416;19.402;2023-02-28T08:36:36;3.19;66.74
63051;SHT30;49136;47.416;19.402;2023-02-28T08:39:02;3.23;67.29
63051;SHT30;49136;47.416;19.402;2023-02-28T08:41:27;3.48;68.51
63051;SHT30;49136;47.416;19.402;2023-02-28T08:43:53;3.54;67.43
63051;SHT30;49136;47.416;19.402;2023-02-28T08:46:19;3.40;67.23
63051;SHT30;49136;47.416;19.402;2023-02-28T08:48:45;3.76;68.38
63051;SHT30;49136;47.416;19.402;2023-02-28T08:51:16;4.01;67.43
63051;SHT30;49136;47.416;19.402;2023-02-28T08:53:44;3.72;66.89
63051;SHT30;49136;47.416;19.402;2023-02-28T08:56:15;3.50;67.70
63051;SHT30;49136;47.416;19.402;2023-02-28T08:58:42;3.58;67.99
63051;SHT30;49136;47.416;19.402;2023-02-28T09:01:09;3.83;67.95
63051;SHT30;49136;47.416;19.402;2023-02-28T09:03:35;3.83;67.69
63051;SHT30;49136;47.416;19.402;2023-02-28T09:06:01;3.42;67.82
63051;SHT30;49136;47.416;19.402;2023-02-28T09:08:28;3.82;67.86
63051;SHT30;49136;47.416;19.402;2023-02-28T09:10:55;4.24;67.40
63051;SHT30;49136;47.416;19.402;2023-02-28T09:13:23;4.14;66.91
63051;SHT30;49136;47.416;19.402;2023-02-28T09:15:49;3.93;68.09
63051;SHT30;49136;47.416;19.402;2023-02-28T09:18:14;3.79;68.22
63051;SHT30;49136;47.416;19.402;2023-02-28T09:20:41;4.21;67.36
63051;SHT30;49136;47.416;19.402;2023-02-28T09:23:08;4.40;67.73
63051;SHT30;49136;47.416;19.402;2023-02-28T09:25:34;4.27;67.73
63051;SHT30;49136;47.416;19.402;2023-02-28T09:27:59;4.72;66.75
63051;SHT30;49136;47.416;19.402;2023-02-28T09:30:25;5.14;65.58
63051;SHT30;49136;47.416;19.402;2023-02-28T09:32:50;4.62;65.90
63051;SHT30;49136;47.416;19.402;2023-02-28T09:35:26;4.38;66.71
63051;SHT30;49136;47.416;19.402;2023-02-28T09:37:52;4.42;66.40
63051;SHT30;49136;47.416;19.402;2023-02-28T09:40:23;4.66;66.57
63051;SHT30;49136;47.416;19.402;2023-02-28T09:42:51;5.29;65.33
63051;SHT30;49136;47.416;19.402;2023-02-28T09:47:59;4.79;65.60
63051;SHT30;49136;47.416;19.402;2023-02-28T09:50:38;4.55;66.09
63051;SHT30;49136;47.416;19.402;2023-02-28T09:53:32;4.95;65.75
63051;SHT30;49136;47.416;19.402;2023-02-28T09:56:10;5.03;65.46
63051;SHT30;49136;47.416;19.402;2023-02-28T10:06:59;6.25;65.06
63051;SHT30;49136;47.416;19.402;2023-02-28T10:09:30;6.40;63.70
63051;SHT30;49136;47.416;19.402;2023-02-28T10:12:02;5.95;62.95
63051;SHT30;49136;47.416;19.402;2023-02-28T10:14:30;5.50;64.13
63051;SHT30;49136;47.416;19.402;2023-02-28T10:17:01;5.22;65.06
63051;SHT30;49136;47.416;19.402;2023-02-28T10:19:38;5.60;64.66
63051;SHT30;49136;47.416;19.402;2023-02-28T10:22:19;5.75;64.68
63051;SHT30;49136;47.416;19.402;2023-02-28T10:24:51;4.97;64.99
63051;SHT30;49136;47.416;19.402;2023-02-28T10:27:24;5.31;65.64
63051;SHT30;49136;47.416;19.402;2023-02-28T10:32:19;5.87;64.75
63051;SHT30;49136;47.416;19.402;2023-02-28T10:34:52;5.62;64.50
63051;SHT30;49136;47.416;19.402;2023-02-28T10:37:19;5.50;66.35
63051;SHT30;49136;47.416;19.402;2023-02-28T10:39:46;5.36;65.40
63051;SHT30;49136;47.416;19.402;2023-02-28T10:42:26;5.43;65.15
63051;SHT30;49136;47.416;19.402;2023-02-28T10:45:16;5.60;64.56
63051;SHT30;49136;47.416;19.402;2023-02-28T10:48:03;5.21;66.25
63051;SHT30;49136;47.416;19.402;2023-02-28T10:55:40;5.14;67.07
63051;SHT30;49136;47.416;19.402;2023-02-28T10:58:27;5.53;66.98
63051;SHT30;49136;47.416;19.402;2023-02-28T11:00:54;6.16;65.19
63051;SHT30;49136;47.416;19.402;2023-02-28T11:03:31;5.56;64.94
63051;SHT30;49136;47.416;19.402;2023-02-28T11:05:57;6.12;65.39
63051;SHT30;49136;47.416;19.402;2023-02-28T11:08:23;5.66;65.29
63051;SHT30;49136;47.416;19.402;2023-02-28T11:11:03;5.52;65.10
63051;SHT30;49136;47.416;19.402;2023-02-28T11:13:35;5.35;65.71
63051;SHT30;49136;47.416;19.402;2023-02-28T11:16:05;4.95;66.16
63051;SHT30;49136;47.416;19.402;2023-02-28T11:21:15;5.60;67.53
63051;SHT30;49136;47.416;19.402;2023-02-28T11:23:42;5.93;65.58
63051;SHT30;49136;47.416;19.402;2023-02-28T11:26:08;5.43;64.77
63051;SHT30;49136;47.416;19.402;2023-02-28T11:28:39;5.73;64.81
63051;SHT30;49136;47.416;19.402;2023-02-28T11:33:45;5.98;65.09
63051;SHT30;49136;47.416;19.402;2023-02-28T11:38:40;5.40;65.61
63051;SHT30;49136;47.416;19.402;2023-02-28T11:51:48;5.90;65.34
63051;SHT30;49136;47.416;19.402;2023-02-28T11:54:35;5.86;64.91
63051;SHT30;49136;47.416;19.402;2023-02-28T12:00:06;6.18;64.25
63051;SHT30;49136;47.416;19.402;2023-02-28T12:05:45;6.36;64.87
63051;SHT30;49136;47.416;19.402;2023-02-28T12:16:58;6.32;65.23
63051;SHT30;49136;47.416;19.402;2023-02-28T12:27:34;5.70;64.11
63051;SHT30;49136;47.416;19.402;2023-02-28T12:30:30;6.73;64.70
63051;SHT30;49136;47.416;19.402;2023-02-28T12:33:06;6.81;64.18
63051;SHT30;49136;47.416;19.402;2023-02-28T12:35:36;6.65;64.28
63051;SHT30;49136;47.416;19.402;2023-02-28T12:43:12;6.64;63.92
63051;SHT30;49136;47.416;19.402;2023-02-28T12:45:58;6.29;64.95
63051;SHT30;49136;47.416;19.402;2023-02-28T12:48:31;6.68;64.57
63051;SHT30;49136;47.416;19.402;2023-02-28T12:50:57;6.11;64.81
63051;SHT30;49136;47.416;19.402;2023-02-28T12:53:32;6.06;64.72
63051;SHT30;49136;47.416;19.402;2023-02-28T12:58:45;6.29;65.37
63051;SHT30;49136;47.416;19.402;2023-02-28T13:09:53;6.68;64.84
63051;SHT30;49136;47.416;19.402;2023-02-28T13:12:19;6.25;65.29
63051;SHT30;49136;47.416;19.402;2023-02-28T13:14:45;6.32;65.24
63051;SHT30;49136;47.416;19.402;2023-02-28T13:17:14;6.61;65.62
63051;SHT30;49136;47.416;19.402;2023-02-28T13:24:54;6.67;64.02
63051;SHT30;49136;47.416;19.402;2023-02-28T13:27:24;7.41;63.96
63051;SHT30;49136;47.416;19.402;2023-02-28T13:29:52;7.41;63.67
63051;SHT30;49136;47.416;19.402;2023-02-28T13:32:33;6.84;64.86
63051;SHT30;49136;47.416;19.402;2023-02-28T13:39:56;6.50;66.89
63051;SHT30;49136;47.416;19.402;2023-02-28T13:50:33;7.30;64.66
63051;SHT30;49136;47.416;19.402;2023-02-28T13:56:05;6.44;65.54
63051;SHT30;49136;47.416;19.402;2023-02-28T13:58:52;6.43;65.58
63051;SHT30;49136;47.416;19.402;2023-02-28T14:04:30;6.82;64.28
63051;SHT30;49136;47.416;19.402;2023-02-28T14:07:03;7.22;64.22
63051;SHT30;49136;47.416;19.402;2023-02-28T14:11:57;6.54;65.08
63051;SHT30;49136;47.416;19.402;2023-02-28T14:17:15;6.09;66.69
63051;SHT30;49136;47.416;19.402;2023-02-28T14:19:45;6.34;66.93
63051;SHT30;49136;47.416;19.402;2023-02-28T14:25:53;5.78;67.92
63051;SHT30;49136;47.416;19.402;2023-02-28T14:30:40;6.05;67.40
63051;SHT30;49136;47.416;19.402;2023-02-28T14:38:23;6.09;68.45
63051;SHT30;49136;47.416;19.402;2023-02-28T14:40:52;5.88;68.49
63051;SHT30;49136;47.416;19.402;2023-02-28T14:43:23;5.98;69.12
63051;SHT30;49136;47.416;19.402;2023-02-28T14:45:52;5.73;69.03
63051;SHT30;49136;47.416;19.402;2023-02-28T14:48:19;5.56;69.77
63051;SHT30;49136;47.416;19.402;2023-02-28T14:51:07;5.63;70.10
63051;SHT30;49136;47.416;19.402;2023-02-28T14:53:37;5.77;70.05
63051;SHT30;49136;47.416;19.402;2023-02-28T14:56:03;5.86;69.45
63051;SHT30;49136;47.416;19.402;2023-02-28T14:58:31;5.75;69.84
63051;SHT30;49136;47.416;19.402;2023-02-28T15:01:00;5.67;70.62
63051;SHT30;49136;47.416;19.402;2023-02-28T15:06:04;5.27;70.85
63051;SHT30;49136;47.416;19.402;2023-02-28T15:08:31;5.29;71.16
63051;SHT30;49136;47.416;19.402;2023-02-28T15:13:48;5.28;72.22
63051;SHT30;49136;47.416;19.402;2023-02-28T15:16:36;5.45;71.61
63051;SHT30;49136;47.416;19.402;2023-02-28T15:19:40;5.12;72.09
63051;SHT30;49136;47.416;19.402;2023-02-28T15:22:12;4.95;71.99
63051;SHT30;49136;47.416;19.402;2023-02-28T15:24:44;5.04;72.42
63051;SHT30;49136;47.416;19.402;2023-02-28T15:27:18;4.86;72.51
63051;SHT30;49136;47.416;19.402;2023-02-28T15:29:50;4.86;73.25
63051;SHT30;49136;47.416;19.402;2023-02-28T15:32:38;4.81;73.28
63051;SHT30;49136;47.416;19.402;2023-02-28T15:35:37;4.79;73.68
63051;SHT30;49136;47.416;19.402;2023-02-28T15:40:53;4.81;73.93
63051;SHT30;49136;47.416;19.402;2023-02-28T15:43:26;4.84;74.17
63051;SHT30;49136;47.416;19.402;2023-02-28T15:45:59;4.76;73.79
63051;SHT30;49136;47.416;19.402;2023-02-28T15:51:33;4.62;74.19
63051;SHT30;49136;47.416;19.402;2023-02-28T15:54:14;4.62;74.48
63051;SHT30;49136;47.416;19.402;2023-02-28T15:56:46;4.72;73.99
63051;SHT30;49136;47.416;19.402;2023-02-28T15:59:22;4.59;74.27
63051;SHT30;49136;47.416;19.402;2023-02-28T16:02:13;4.56;74.63
63051;SHT30;49136;47.416;19.402;2023-02-28T16:05:39;4.59;74.55
63051;SHT30;49136;47.416;19.402;2023-02-28T16:07:42;4.63;74.06
63051;SHT30;49136;47.416;19.402;2023-02-28T16:10:10;4.60;74.47
63051;SHT30;49136;47.416;19.402;2023-02-28T16:12:38;4.46;74.54
63051;SHT30;49136;47.416;19.402;2023-02-28T16:15:16;4.41;75.49
63051;SHT30;49136;47.416;19.402;2023-02-28T16:17:42;4.42;74.63
63051;SHT30;49136;47.416;19.402;2023-02-28T16:20:15;4.33;74.69
63051;SHT30;49136;47.416;19.402;2023-02-28T16:22:42;4.25;75.48
63051;SHT30;49136;47.416;19.402;2023-02-28T16:25:11;4.21;75.95
63051;SHT30;49136;47.416;19.402;2023-02-28T16:27:37;4.18;75.85
63051;SHT30;49136;47.416;19.402;2023-02-28T16:30:05;4.18;76.27
63051;SHT30;49136;47.416;19.402;2023-02-28T16:32:34;4.20;76.44
63051;SHT30;49136;47.416;19.402;2023-02-28T16:35:00;4.20;76.62
63051;SHT30;49136;47.416;19.402;2023-02-28T16:37:26;4.17;76.49
63051;SHT30;49136;47.416;19.402;2023-02-28T16:39:52;4.18;76.44
63051;SHT30;49136;47.416;19.402;2023-02-28T16:42:23;4.17;76.34
63051;SHT30;49136;47.416;19.402;2023-02-28T16:44:51;4.13;76.52
63051;SHT30;49136;47.416;19.402;2023-02-28T16:47:17;4.11;76.66
63051;SHT30;49136;47.416;19.402;2023-02-28T16:49:43;4.09;76.45
63051;SHT30;49136;47.416;19.402;2023-02-28T16:52:10;4.11;76.65
63051;SHT30;49136;47.416;19.402;2023-02-28T16:54:37;4.06;76.68
63051;SHT30;49136;47.416;19.402;2023-02-28T16:57:04;4.10;76.43
63051;SHT30;49136;47.416;19.402;2023-02-28T16:59:31;4.07;76.80
63051;SHT30;49136;47.416;19.402;2023-02-28T17:01:57;4.04;76.67
63051;SHT30;49136;47.416;19.402;2023-02-28T17:04:24;4.11;76.56
63051;SHT30;49136;47.416;19.402;2023-02-28T17:06:50;4.03;76.90
63051;SHT30;49136;47.416;19.402;2023-02-28T17:09:21;3.97;77.66
63051;SHT30;49136;47.416;19.402;2023-02-28T17:11:48;3.96;77.29
63051;SHT30;49136;47.416;19.402;2023-02-28T17:14:14;3.93;77.36
63051;SHT30;49136;47.416;19.402;2023-02-28T17:16:41;3.97;77.17
63051;SHT30;49136;47.416;19.402;2023-02-28T17:19:13;3.97;77.10
63051;SHT30;49136;47.416;19.402;2023-02-28T17:21:40;3.94;77.22
63051;SHT30;49136;47.416;19.402;2023-02-28T17:24:08;3.89;78.01
63051;SHT30;49136;47.416;19.402;2023-02-28T17:26:34;3.89;77.91
63051;SHT30;49136;47.416;19.402;2023-02-28T17:28:59;3.90;77.60
63051;SHT30;49136;47.416;19.402;2023-02-28T17:31:27;3.86;78.42
63051;SHT30;49136;47.416;19.402;2023-02-28T17:33:54;3.81;79.28
63051;SHT30;49136;47.416;19.402;2023-02-28T17:36:25;3.81;78.82
63051;SHT30;49136;47.416;19.402;2023-02-28T17:38:53;3.79;78.81
63051;SHT30;49136;47.416;19.402;2023-02-28T17:41:19;3.79;78.62
63051;SHT30;49136;47.416;19.402;2023-02-28T17:43:45;3.76;78.83
63051;SHT30;49136;47.416;19.402;2023-02-28T17:46:17;3.76;79.00
63051;SHT30;49136;47.416;19.402;2023-02-28T17:48:46;3.75;79.48
63051;SHT30;49136;47.416;19.402;2023-02-28T17:51:13;3.69;79.73
63051;SHT30;49136;47.416;19.402;2023-02-28T17:53:39;3.71;79.68
63051;SHT30;49136;47.416;19.402;2023-02-28T17:56:09;3.69;79.66
63051;SHT30;49136;47.416;19.402;2023-02-28T17:58:36;3.66;79.74
63051;SHT30;49136;47.416;19.402;2023-02-28T18:01:01;3.65;79.59
63051;SHT30;49136;47.416;19.402;2023-02-28T18:03:27;3.65;79.67
63051;SHT30;49136;47.416;19.402;2023-02-28T18:05:53;3.65;79.86
63051;SHT30;49136;47.416;19.402;2023-02-28T18:08:21;3.64;79.83
63051;SHT30;49136;47.416;19.402;2023-02-28T18:10:47;3.66;79.90
63051;SHT30;49136;47.416;19.402;2023-02-28T18:13:13;3.65;80.00
63051;SHT30;49136;47.416;19.402;2023-02-28T18:15:39;3.64;80.00